Time;durP1;ratioP1;P1;durP2;ratioP2;P2;SDS_P1;SDS_P2;PMS_P1;PMS_P2;Temp;Humidity;BMP_temperature;BMP_pressure;BME280_temperature;BME280_humidity;BME280_pressure;Samples;Min_cycle;Max_cycle;Signal;HPM_P1;HPM_P2
2021/05/10 00:02:26;;;;;;;21.57;14.10;;;;;;;9.54;68.50;101000.86;1810500;78;23470;-85
2021/05/10 00:05:05;;;;;;;21.35;13.13;;;;;;;9.48;68.54;101001.98;1810354;78;22772;-83
2021/05/10 00:07:44;;;;;;;23.38;15.20;;;;;;;9.43;68.65;100999.17;1888254;76;22724;-85
2021/05/10 00:10:25;;;;;;;20.88;13.88;;;;;;;9.37;68.79;101002.04;1888729;76;22705;-83
2021/05/10 00:13:04;;;;;;;16.65;11.60;;;;;;;9.31;68.91;101003.61;1810526;78;22735;-85
2021/05/10 00:15:47;;;;;;;19.30;13.03;;;;;;;9.27;69.02;101006.06;1810616;78;22807;-85
2021/05/10 00:18:23;;;;;;;18.75;13.10;;;;;;;9.20;69.09;101002.34;1888890;75;23150;-85
2021/05/10 00:21:02;;;;;;;19.80;12.88;;;;;;;9.14;69.18;100999.48;1888249;75;22685;-83
2021/05/10 00:23:41;;;;;;;18.77;13.20;;;;;;;9.09;69.34;101003.27;1888334;76;22664;-84
2021/05/10 00:26:22;;;;;;;22.32;13.60;;;;;;;9.03;69.46;101008.33;1888043;76;23165;-85
2021/05/10 00:29:04;;;;;;;20.43;13.80;;;;;;;9.00;69.56;101001.64;1888212;76;21992;-85
2021/05/10 00:31:46;;;;;;;21.65;12.95;;;;;;;8.95;69.72;101004.51;1887910;76;22636;-83
2021/05/10 00:34:25;;;;;;;19.05;13.25;;;;;;;8.92;69.75;101004.42;1887805;75;22728;-85
2021/05/10 00:37:03;;;;;;;21.45;13.43;;;;;;;8.90;69.88;101000.42;1810106;78;22793;-85
2021/05/10 00:39:41;;;;;;;19.77;13.28;;;;;;;8.88;69.94;101001.22;1810107;78;22881;-83
2021/05/10 00:42:19;;;;;;;19.73;12.75;;;;;;;8.85;70.05;101002.41;1810187;78;22797;-85
2021/05/10 00:45:01;;;;;;;20.12;13.83;;;;;;;8.82;70.12;100994.41;1810055;78;22903;-85
2021/05/10 00:47:37;;;;;;;20.67;14.30;;;;;;;8.79;70.27;100993.89;1872593;75;28485;-84
2021/05/10 00:50:16;;;;;;;19.73;13.48;;;;;;;8.77;70.18;100994.27;1887131;75;22794;-85
2021/05/10 00:52:55;;;;;;;23.02;14.33;;;;;;;8.75;70.32;100990.27;1888026;75;22637;-85
2021/05/10 00:55:38;;;;;;;24.18;14.33;;;;;;;8.74;70.45;100988.89;1810172;78;22903;-83
2021/05/10 00:58:17;;;;;;;20.95;13.58;;;;;;;8.73;70.52;100985.81;1888268;75;23162;-82
2021/05/10 01:01:00;;;;;;;19.48;12.98;;;;;;;8.69;70.60;100982.58;1888675;76;22733;-83
2021/05/10 01:03:46;;;;;;;21.17;14.38;;;;;;;8.68;70.73;100982.12;1888494;76;23053;-84
2021/05/10 01:06:25;;;;;;;20.00;14.33;;;;;;;8.66;70.81;100986.42;1888007;76;23154;-81
2021/05/10 01:09:07;;;;;;;23.47;14.60;;;;;;;8.64;70.93;100982.84;1810264;78;22793;-83
2021/05/10 01:11:49;;;;;;;19.80;13.83;;;;;;;8.63;70.96;100984.98;1810488;78;22761;-84
2021/05/10 01:14:25;;;;;;;22.85;14.10;;;;;;;8.60;71.06;100985.78;1887620;75;22718;-82
2021/05/10 01:17:03;;;;;;;25.20;14.23;;;;;;;8.59;71.12;100985.72;1888668;75;22874;-83
2021/05/10 01:19:38;;;;;;;24.10;14.43;;;;;;;8.55;71.12;100982.97;1848503;76;23256;-82
2021/05/10 01:22:14;;;;;;;23.00;14.83;;;;;;;8.53;71.22;100978.08;1810614;78;22754;-83
2021/05/10 01:24:56;;;;;;;28.85;15.85;;;;;;;8.49;71.27;100978.81;1888850;76;23253;-85
2021/05/10 01:27:37;;;;;;;25.80;14.15;;;;;;;8.43;71.30;100990.40;1888015;76;22856;-85
2021/05/10 01:30:35;;;;;;;20.88;13.95;;;;;;;8.37;71.38;100985.78;1888589;75;22662;-83
2021/05/10 01:33:36;;;;;;;23.45;14.13;;;;;;;8.32;71.58;100982.09;1875330;75;23433;-84
2021/05/10 01:36:18;;;;;;;24.23;13.88;;;;;;;8.31;71.62;100984.64;1810504;78;22466;-84
2021/05/10 01:38:56;;;;;;;25.45;15.05;;;;;;;8.27;71.68;100977.08;1847862;76;22769;-85
2021/05/10 01:41:32;;;;;;;24.47;14.98;;;;;;;8.24;71.78;100972.13;1888340;76;22661;-85
2021/05/10 01:44:10;;;;;;;22.48;15.48;;;;;;;8.20;71.83;100984.23;1888188;74;22948;-86
2021/05/10 01:47:16;;;;;;;22.13;13.60;;;;;;;8.15;71.89;100977.94;1888455;76;22740;-84
2021/05/10 01:49:58;;;;;;;23.27;14.65;;;;;;;8.13;72.04;100984.85;1810655;78;22745;-85
2021/05/10 01:52:36;;;;;;;22.85;14.83;;;;;;;8.10;72.05;100977.73;1888683;74;22370;-82
2021/05/10 01:55:14;;;;;;;25.60;14.83;;;;;;;8.05;72.11;100980.63;1850992;76;22066;-83
2021/05/10 01:57:58;;;;;;;23.77;14.43;;;;;;;8.02;72.31;100984.86;1810579;77;22910;-84
2021/05/10 02:00:44;;;;;;;23.22;14.43;;;;;;;7.97;72.36;100978.98;1810347;78;22761;-81
2021/05/10 02:03:22;;;;;;;22.13;14.50;;;;;;;7.94;72.38;100981.94;1862926;76;27958;-83
2021/05/10 02:06:01;;;;;;;24.98;14.03;;;;;;;7.92;72.31;100982.27;1888637;76;22714;-83
2021/05/10 02:08:45;;;;;;;22.13;14.13;;;;;;;7.93;72.46;100982.75;1810591;78;23377;-84
2021/05/10 02:11:23;;;;;;;23.12;14.55;;;;;;;7.91;72.45;100985.73;1888785;76;22733;-85
2021/05/10 02:14:04;;;;;;;24.75;14.68;;;;;;;7.89;72.59;100984.78;1810526;78;22733;-84
2021/05/10 02:16:46;;;;;;;25.80;13.28;;;;;;;7.88;72.61;100991.77;1810660;78;22799;-85
2021/05/10 02:19:28;;;;;;;22.37;14.20;;;;;;;7.89;72.72;100986.98;1810495;77;22757;-84
2021/05/10 02:22:09;;;;;;;21.75;13.83;;;;;;;7.87;72.61;100989.08;1810458;78;22812;-84
2021/05/10 02:24:51;;;;;;;22.50;12.65;;;;;;;7.84;72.68;100986.32;1888618;76;23528;-84
2021/05/10 02:27:35;;;;;;;20.43;13.65;;;;;;;7.81;72.77;100988.41;1888529;76;22446;-84
2021/05/10 02:30:19;;;;;;;20.15;12.80;;;;;;;7.80;72.87;100991.85;1888467;75;22697;-83
2021/05/10 02:32:58;;;;;;;19.73;12.53;;;;;;;7.78;72.89;101000.95;1810445;78;22932;-83
2021/05/10 02:35:41;;;;;;;23.18;13.35;;;;;;;7.76;72.98;100999.12;1810490;78;23439;-83
2021/05/10 02:38:21;;;;;;;18.87;12.85;;;;;;;7.77;73.13;100990.02;1810666;78;22782;-84
2021/05/10 02:41:04;;;;;;;19.75;12.50;;;;;;;7.76;73.05;100992.56;1888360;74;23349;-84
2021/05/10 02:43:46;;;;;;;17.95;12.68;;;;;;;7.77;73.11;100997.88;1888778;76;22704;-83
2021/05/10 02:46:28;;;;;;;25.43;13.55;;;;;;;7.76;73.05;100993.88;1810575;78;23404;-85
2021/05/10 02:49:10;;;;;;;22.10;12.33;;;;;;;7.72;73.09;100999.41;1810597;77;22790;-83
2021/05/10 02:51:57;;;;;;;25.92;13.15;;;;;;;7.75;73.12;101001.24;1851694;77;22821;-84
2021/05/10 02:54:33;;;;;;;17.25;11.73;;;;;;;7.74;73.15;100999.05;1848855;76;22717;-83
2021/05/10 02:57:34;;;;;;;18.75;12.88;;;;;;;7.74;73.21;100996.85;1868037;75;22721;-82
2021/05/10 03:00:19;;;;;;;16.95;11.55;;;;;;;7.71;73.29;100992.36;1810484;78;23250;-81
2021/05/10 03:02:57;;;;;;;18.98;11.68;;;;;;;7.76;73.33;100998.69;1911719;74;23295;-84
2021/05/10 03:05:41;;;;;;;19.92;12.05;;;;;;;7.80;73.30;101001.02;1888724;76;22745;-82
2021/05/10 03:08:19;;;;;;;19.05;11.78;;;;;;;7.82;73.33;101003.28;1852124;77;22772;-84
2021/05/10 03:11:01;;;;;;;21.10;11.63;;;;;;;7.83;73.32;100998.54;1888465;74;22551;-84
2021/05/10 03:13:44;;;;;;;17.57;11.68;;;;;;;7.87;73.36;101002.18;1810655;78;22931;-82
2021/05/10 03:16:21;;;;;;;19.55;11.38;;;;;;;7.94;73.46;100998.97;1888973;76;22532;-85
2021/05/10 03:19:03;;;;;;;18.35;11.68;;;;;;;8.05;73.44;101000.68;1888699;76;22784;-84
2021/05/10 03:21:40;;;;;;;15.55;10.88;;;;;;;8.12;73.33;100998.78;1888464;76;23329;-84
2021/05/10 03:24:16;;;;;;;17.02;11.15;;;;;;;8.21;73.42;101000.88;1888971;76;22755;-83
2021/05/10 03:26:54;;;;;;;15.83;11.18;;;;;;;8.39;73.55;101009.45;1888921;74;22728;-83
2021/05/10 03:29:32;;;;;;;16.35;10.88;;;;;;;8.54;73.49;101005.23;1810960;78;22085;-85
2021/05/10 03:32:11;;;;;;;17.05;11.00;;;;;;;8.69;73.29;101013.67;1888463;75;23308;-83
2021/05/10 03:37:33;;;;;;;17.87;9.80;;;;;;;10.12;75.41;101009.72;1888608;75;22723;-84
2021/05/10 03:40:15;;;;;;;17.10;9.88;;;;;;;12.06;76.17;101009.73;1810392;78;22719;-84
2021/05/10 03:42:53;;;;;;;14.10;9.85;;;;;;;14.02;74.50;101001.15;1888793;76;22645;-85
2021/05/10 03:45:35;;;;;;;14.40;9.78;;;;;;;15.94;72.29;100995.33;1810517;78;22532;-85
2021/05/10 03:48:14;;;;;;;11.90;8.95;;;;;;;17.63;69.58;100990.17;1848145;76;23319;-83
2021/05/10 03:50:52;;;;;;;15.48;8.60;;;;;;;19.12;67.12;100978.18;1888590;75;23155;-82
2021/05/10 04:01:02;;;;;;;13.10;7.50;;;;;;;23.11;59.19;100985.84;1858845;77;21127;-89
2021/05/10 04:15:45;;;;;;;10.95;7.12;;;;;;;28.50;48.07;100980.45;1889915;75;22108;-83
2021/05/10 04:18:35;;;;;;;9.80;7.45;;;;;;;29.15;46.93;100986.47;1888512;75;26834;-83
2021/05/10 04:21:26;;;;;;;8.23;7.20;;;;;;;29.63;44.76;100979.52;1810599;78;22880;-83
2021/05/10 04:24:16;;;;;;;7.90;6.75;;;;;;;30.01;43.62;100987.56;1888609;76;22981;-83
2021/05/10 04:26:58;;;;;;;7.97;6.30;;;;;;;30.42;42.50;100983.60;1889031;76;22723;-86
2021/05/10 04:29:41;;;;;;;8.38;6.28;;;;;;;30.90;41.32;100992.75;1850273;76;22137;-93
2021/05/10 04:32:19;;;;;;;14.75;7.17;;;;;;;31.54;40.62;100988.67;1847902;76;22415;-84
2021/05/10 04:34:58;;;;;;;10.38;6.20;;;;;;;32.16;39.35;100984.49;1888243;76;23063;-81
2021/05/10 04:37:36;;;;;;;9.58;6.75;;;;;;;32.69;38.39;100984.83;1888370;76;22712;-84
2021/05/10 04:40:15;;;;;;;7.67;6.33;;;;;;;33.01;37.19;100980.00;1888590;76;23056;-82
2021/05/10 04:42:52;;;;;;;9.58;6.83;;;;;;;32.95;36.39;100987.23;1810473;78;22543;-83
2021/05/10 04:45:28;;;;;;;7.03;5.75;;;;;;;32.76;35.56;100981.23;1888704;76;22241;-83
2021/05/10 04:48:06;;;;;;;7.35;5.75;;;;;;;32.56;34.76;100976.52;1888700;76;22666;-83
2021/05/10 04:50:43;;;;;;;8.88;5.78;;;;;;;32.39;34.56;100974.88;1810750;78;22257;-84
2021/05/10 04:53:20;;;;;;;7.62;6.78;;;;;;;32.73;34.43;100972.75;1822256;78;22034;-84
2021/05/10 04:55:58;;;;;;;9.35;6.30;;;;;;;32.89;33.61;100974.88;1888897;76;22778;-84
2021/05/10 04:58:34;;;;;;;6.70;5.70;;;;;;;33.01;33.41;100965.00;1888377;76;22728;-84
2021/05/10 05:01:11;;;;;;;11.22;6.47;;;;;;;33.21;32.90;100968.31;1887588;75;22225;-85
2021/05/10 05:03:49;;;;;;;10.50;6.90;;;;;;;33.47;32.62;100972.02;1810607;78;22018;-87
2021/05/10 05:06:27;;;;;;;11.70;6.87;;;;;;;34.05;32.09;100973.47;1810658;78;21814;-86
2021/05/10 05:11:43;;;;;;;13.15;7.28;;;;;;;34.99;30.90;100968.11;1888515;75;23221;-85
2021/05/10 05:39:32;;;;;;;9.63;5.45;;;;;;;33.02;26.63;100959.95;1663188;85;21228;-91
2021/05/10 05:42:10;;;;;;;6.33;5.22;;;;;;;28.99;27.96;100963.25;1889202;75;23321;-85
2021/05/10 05:44:54;;;;;;;8.65;5.65;;;;;;;26.92;29.45;100968.66;1867354;76;22065;-85
2021/05/10 05:47:31;;;;;;;9.63;5.50;;;;;;;25.39;30.73;100968.30;1888894;76;22714;-91
2021/05/10 05:50:10;;;;;;;9.45;6.53;;;;;;;24.05;31.89;100969.59;1888801;75;22546;-90
2021/05/10 05:52:47;;;;;;;9.53;6.17;;;;;;;22.90;32.94;100966.59;1810607;78;23327;-87
2021/05/10 05:55:23;;;;;;;6.83;5.03;;;;;;;22.01;34.02;100970.60;1810560;78;22922;-88
2021/05/10 05:58:00;;;;;;;7.35;5.33;;;;;;;21.25;34.97;100959.41;1888078;76;21862;-84
2021/05/10 06:00:38;;;;;;;7.28;5.83;;;;;;;20.48;35.67;100957.79;1888360;76;22238;-84
2021/05/10 06:03:17;;;;;;;7.42;5.55;;;;;;;19.87;36.84;100963.36;1784983;79;22754;-84
2021/05/10 06:05:54;;;;;;;9.05;5.70;;;;;;;19.00;38.42;100949.81;1888508;76;22272;-87
2021/05/10 06:08:32;;;;;;;8.43;5.60;;;;;;;19.02;38.62;100952.89;1888443;76;22322;-85
2021/05/10 06:11:09;;;;;;;8.68;5.85;;;;;;;18.74;39.32;100957.93;1810785;78;22718;-85
2021/05/10 06:13:46;;;;;;;9.38;5.80;;;;;;;18.53;40.00;100955.80;1888392;76;22829;-85
2021/05/10 06:16:29;;;;;;;11.53;7.92;;;;;;;18.35;40.61;100955.42;1795260;78;28572;-86
2021/05/10 06:19:09;;;;;;;8.65;6.28;;;;;;;18.28;41.12;100951.00;1810606;78;22776;-85
2021/05/10 06:21:48;;;;;;;8.80;5.87;;;;;;;18.15;41.74;100941.28;1810772;78;22720;-86
2021/05/10 06:24:27;;;;;;;8.68;5.92;;;;;;;18.06;42.23;100943.55;1810618;77;23360;-86
2021/05/10 06:27:05;;;;;;;7.70;6.08;;;;;;;17.99;42.43;100947.11;1810684;78;22721;-86
2021/05/10 06:29:43;;;;;;;12.75;6.58;;;;;;;17.88;42.81;100947.12;1888753;76;22726;-84
2021/05/10 06:32:21;;;;;;;8.45;6.40;;;;;;;17.81;43.17;100939.58;1810559;77;22840;-84
2021/05/10 06:34:59;;;;;;;8.95;5.83;;;;;;;17.75;43.49;100944.89;1810693;78;22278;-85
2021/05/10 06:37:37;;;;;;;10.55;5.95;;;;;;;17.71;43.68;100940.46;1888660;76;22664;-87
2021/05/10 06:40:16;;;;;;;13.60;7.55;;;;;;;17.67;43.97;100935.58;1839231;77;22259;-85
2021/05/10 06:42:54;;;;;;;12.33;6.85;;;;;;;17.59;44.15;100936.05;1810753;78;23800;-86
2021/05/10 06:45:33;;;;;;;9.30;5.55;;;;;;;17.56;44.51;100931.17;1810565;78;22756;-85
2021/05/10 06:48:32;;;;;;;12.98;6.50;;;;;;;17.53;44.70;100932.07;1888403;75;22722;-85
2021/05/10 06:51:10;;;;;;;8.95;6.00;;;;;;;17.53;45.14;100930.73;1888859;76;22450;-84
2021/05/10 06:53:48;;;;;;;7.95;6.08;;;;;;;17.51;44.95;100928.95;1810518;78;22717;-84
2021/05/10 06:56:37;;;;;;;;;;;;;;;;;;;;;
2021/05/10 06:59:06;;;;;;;11.48;7.08;;;;;;;17.41;45.25;100934.27;1810046;78;22369;-84
2021/05/10 07:01:43;;;;;;;8.70;5.85;;;;;;;17.42;45.64;100933.84;1887959;76;23080;-85
2021/05/10 07:04:21;;;;;;;9.73;6.33;;;;;;;17.44;45.77;100934.28;1809926;78;22765;-85
2021/05/10 07:06:59;;;;;;;11.57;6.03;;;;;;;17.48;46.10;100935.17;1809952;78;22812;-84
2021/05/10 07:09:41;;;;;;;11.50;8.08;;;;;;;17.55;46.41;100933.38;1809966;78;22455;-84
2021/05/10 07:12:22;;;;;;;9.53;6.40;;;;;;;17.60;46.50;100942.25;1887655;76;22656;-85
2021/05/10 07:14:58;;;;;;;12.00;6.78;;;;;;;17.62;46.42;100945.80;1887945;76;22664;-84
2021/05/10 07:17:39;;;;;;;11.12;6.72;;;;;;;17.63;46.43;100944.47;1888337;76;24289;-86
2021/05/10 07:20:17;;;;;;;7.95;6.08;;;;;;;17.63;46.39;100943.13;1810523;78;22878;-84
2021/05/10 07:22:55;;;;;;;9.18;6.30;;;;;;;17.64;46.44;100943.59;1810777;78;22804;-85
2021/05/10 07:25:44;;;;;;;9.15;6.17;;;;;;;17.67;46.78;100942.69;1810723;78;22790;-87
2021/05/10 07:28:22;;;;;;;9.93;6.80;;;;;;;17.72;46.63;100940.01;1810685;78;22808;-86
2021/05/10 07:31:01;;;;;;;8.45;6.62;;;;;;;17.73;46.58;100937.80;1810657;78;22782;-84
2021/05/10 07:33:39;;;;;;;9.30;5.72;;;;;;;17.74;46.81;100935.14;1810730;77;22805;-84
2021/05/10 07:36:16;;;;;;;9.13;6.00;;;;;;;17.81;46.88;100929.34;1810607;78;22756;-84
2021/05/10 07:38:54;;;;;;;7.80;5.20;;;;;;;17.90;46.81;100929.36;1888901;76;22473;-86
2021/05/10 07:41:32;;;;;;;10.43;6.00;;;;;;;17.97;46.90;100923.14;1810568;77;23427;-84
2021/05/10 07:44:10;;;;;;;9.85;5.60;;;;;;;18.01;46.64;100920.90;1810759;77;22567;-86
2021/05/10 07:46:48;;;;;;;9.78;5.42;;;;;;;18.09;46.67;100926.66;1866308;76;23379;-86
2021/05/10 07:49:26;;;;;;;9.95;5.50;;;;;;;18.17;46.60;100923.51;1888792;76;23107;-86
2021/05/10 07:52:05;;;;;;;11.33;5.42;;;;;;;18.24;46.37;100922.59;1810690;77;22799;-84
2021/05/10 07:54:43;;;;;;;7.92;5.25;;;;;;;18.29;46.24;100928.80;1810556;78;22818;-85
2021/05/10 07:57:21;;;;;;;8.90;6.15;;;;;;;18.34;46.25;100923.44;1810621;78;23454;-86
2021/05/10 07:59:59;;;;;;;7.70;5.55;;;;;;;18.42;46.26;100929.64;1816929;79;22025;-84
2021/05/10 08:02:42;;;;;;;7.95;5.30;;;;;;;18.52;45.92;100927.81;1796200;78;23354;-85
2021/05/10 08:05:21;;;;;;;7.50;4.83;;;;;;;18.59;45.81;100928.23;1888329;76;22735;-85
2021/05/10 08:07:58;;;;;;;10.53;5.08;;;;;;;18.67;45.88;100922.86;1888455;76;23222;-86
2021/05/10 08:10:36;;;;;;;8.95;5.60;;;;;;;18.75;45.81;100925.92;1810735;78;22349;-84
2021/05/10 08:13:14;;;;;;;10.88;5.37;;;;;;;18.83;45.59;100925.45;1810688;77;22761;-85
2021/05/10 08:15:52;;;;;;;11.30;6.05;;;;;;;18.90;45.50;100925.41;1888634;75;22749;-86
2021/05/10 08:18:30;;;;;;;7.65;4.92;;;;;;;18.96;45.45;100920.05;1810705;78;22822;-86
2021/05/10 08:21:08;;;;;;;7.12;5.47;;;;;;;18.98;45.52;100920.47;1816868;79;23362;-84
2021/05/10 08:23:46;;;;;;;8.98;5.20;;;;;;;19.03;45.19;100910.66;1888740;76;22628;-86
2021/05/10 08:26:23;;;;;;;8.73;5.33;;;;;;;19.08;45.20;100910.61;1810634;78;22285;-84
2021/05/10 08:29:01;;;;;;;8.53;5.35;;;;;;;19.14;45.13;100902.55;1888538;75;22599;-84
2021/05/10 08:31:38;;;;;;;12.60;7.33;;;;;;;19.23;44.87;100905.14;1810803;78;23403;-86
2021/05/10 08:34:18;;;;;;;33.05;16.93;;;;;;;19.32;44.66;100900.65;1810642;78;22817;-86
2021/05/10 08:36:55;;;;;;;16.82;9.83;;;;;;;19.40;44.86;100897.45;1888437;76;22617;-84
2021/05/10 08:39:33;;;;;;;13.05;5.33;;;;;;;19.53;44.86;100904.91;1810794;78;22733;-86
2021/05/10 08:42:11;;;;;;;8.65;4.62;;;;;;;19.66;44.29;100905.67;1810815;78;23623;-86
2021/05/10 08:44:49;;;;;;;6.92;4.45;;;;;;;19.72;44.03;100897.59;1813179;77;22729;-86
2021/05/10 08:47:33;;;;;;;9.00;4.97;;;;;;;19.78;43.87;100905.56;1810596;78;22469;-86
2021/05/10 08:50:13;;;;;;;8.30;4.20;;;;;;;19.84;43.83;100897.50;1848581;76;23011;-85
2021/05/10 08:52:51;;;;;;;7.08;4.65;;;;;;;19.90;43.51;100895.22;1810620;78;24254;-84
2021/05/10 08:55:27;;;;;;;9.33;4.92;;;;;;;19.95;43.40;100892.02;1889219;76;22041;-86
2021/05/10 08:58:07;;;;;;;10.10;5.42;;;;;;;19.99;43.25;100888.44;1810719;78;23725;-86
2021/05/10 09:00:54;;;;;;;5.72;4.87;;;;;;;20.03;43.04;100880.81;1847911;77;23323;-86
2021/05/10 09:03:41;;;;;;;6.30;4.08;;;;;;;20.10;42.77;100878.93;1780952;79;22651;-86
2021/05/10 09:06:30;;;;;;;5.33;3.70;;;;;;;20.16;43.08;100883.77;1888342;76;22810;-85
2021/05/10 09:09:09;;;;;;;7.67;3.45;;;;;;;20.28;42.70;100882.71;1810692;78;23196;-86
2021/05/10 09:11:55;;;;;;;7.00;3.42;;;;;;;20.38;41.94;100880.80;1810659;78;22259;-84
2021/05/10 09:14:34;;;;;;;10.75;3.65;;;;;;;20.49;41.78;100884.67;1810699;78;22551;-84
2021/05/10 09:17:13;;;;;;;6.00;2.60;;;;;;;20.59;41.39;100867.61;1888418;76;23231;-84
2021/05/10 09:19:56;;;;;;;8.40;2.95;;;;;;;20.72;41.00;100870.98;1888680;76;23249;-87
2021/05/10 09:22:54;;;;;;;3.90;2.85;;;;;;;20.86;41.04;100871.67;1810676;78;22755;-86
2021/05/10 09:25:34;;;;;;;5.05;2.58;;;;;;;21.09;40.55;100867.74;1810677;78;22746;-86
2021/05/10 09:28:16;;;;;;;4.97;2.45;;;;;;;21.27;40.54;100875.47;1810562;78;22732;-86
2021/05/10 09:30:58;;;;;;;9.50;3.40;;;;;;;21.47;40.33;100858.19;1810728;77;22731;-86
2021/05/10 09:33:41;;;;;;;7.22;3.55;;;;;;;21.66;39.97;100861.40;1810641;78;22816;-86
2021/05/10 09:36:38;;;;;;;8.18;3.10;;;;;;;21.82;39.41;100858.86;1888841;76;23235;-84
2021/05/10 09:39:33;;;;;;;6.28;3.05;;;;;;;21.96;39.04;100854.58;1795149;78;28022;-84
2021/05/10 09:42:17;;;;;;;7.00;3.02;;;;;;;22.23;38.79;100857.13;1888314;76;22667;-85
2021/05/10 09:44:58;;;;;;;5.50;2.62;;;;;;;22.28;38.55;100854.36;1810736;78;21969;-85
2021/05/10 09:47:35;;;;;;;5.22;2.45;;;;;;;22.38;38.00;100854.59;1810518;78;22230;-85
2021/05/10 09:50:12;;;;;;;3.33;2.67;;;;;;;22.51;37.72;100864.59;1888829;76;22421;-84
2021/05/10 09:52:54;;;;;;;4.55;2.40;;;;;;;22.60;37.52;100861.70;1851254;76;21999;-85
2021/05/10 09:55:51;;;;;;;6.40;2.67;;;;;;;22.67;37.23;100855.28;1888620;75;22687;-87
2021/05/10 09:58:49;;;;;;;8.15;3.40;;;;;;;22.72;36.69;100855.16;1810593;78;22099;-85
2021/05/10 10:01:45;;;;;;;4.12;3.12;;;;;;;22.73;36.74;100858.28;1890480;74;22740;-85
2021/05/10 10:04:23;;;;;;;10.28;2.77;;;;;;;22.74;36.83;100856.01;1810637;77;22756;-86
2021/05/10 10:07:02;;;;;;;5.75;3.20;;;;;;;22.77;36.50;100855.04;1810666;78;22910;-85
2021/05/10 10:09:40;;;;;;;4.75;2.62;;;;;;;22.76;36.45;100856.85;1888599;75;22705;-85
2021/05/10 10:12:18;;;;;;;10.58;5.87;;;;;;;22.75;36.37;100852.86;1889166;75;22476;-85
2021/05/10 10:14:54;;;;;;;4.60;2.50;;;;;;;22.81;36.46;100848.70;1810607;78;22227;-85
2021/05/10 10:17:32;;;;;;;9.55;3.20;;;;;;;22.83;36.48;100846.40;1810620;78;23315;-84
2021/05/10 10:20:10;;;;;;;7.22;3.83;;;;;;;22.87;36.36;100844.52;1810793;78;22040;-85
2021/05/10 10:22:48;;;;;;;5.60;2.47;;;;;;;22.89;36.20;100844.02;1866181;76;22144;-86
2021/05/10 10:25:24;;;;;;;5.20;2.97;;;;;;;22.90;36.22;100843.98;1795271;78;28832;-84
2021/05/10 10:28:01;;;;;;;5.75;3.67;;;;;;;23.01;36.15;100841.48;1888708;76;22657;-84
2021/05/10 10:30:42;;;;;;;4.08;2.92;;;;;;;23.06;35.93;100832.89;1810574;77;22889;-84
2021/05/10 10:33:43;;;;;;;6.05;3.08;;;;;;;23.11;35.85;100828.77;1810705;78;22768;-84
2021/05/10 10:36:27;;;;;;;6.78;3.80;;;;;;;23.07;36.22;100830.64;1810692;78;22807;-86
2021/05/10 10:39:24;;;;;;;5.58;2.80;;;;;;;23.24;36.09;100849.88;1888462;76;23248;-86
2021/05/10 10:42:11;;;;;;;4.20;2.47;;;;;;;23.36;36.01;100837.05;1810619;78;23235;-84
2021/05/10 10:44:58;;;;;;;4.65;3.17;;;;;;;23.46;36.11;100830.49;1850562;76;21546;-84
2021/05/10 10:50:24;;;;;;;6.87;2.60;;;;;;;23.41;35.42;100829.29;1888205;74;20887;-84
2021/05/10 10:53:03;;;;;;;5.47;3.45;;;;;;;23.47;35.44;100829.59;1888711;76;22686;-84
2021/05/10 10:55:45;;;;;;;4.40;2.77;;;;;;;23.53;35.48;100837.94;1810539;78;22833;-84
2021/05/10 10:58:21;;;;;;;5.65;2.20;;;;;;;23.57;35.36;100829.73;1810593;78;23196;-84
2021/05/10 11:01:22;;;;;;;5.97;1.90;;;;;;;23.60;35.49;100839.06;1888812;75;22809;-84
2021/05/10 11:04:03;;;;;;;7.15;2.00;;;;;;;23.49;35.18;100807.59;1816832;79;22469;-84
2021/05/10 11:06:49;;;;;;;6.53;2.77;;;;;;;23.49;35.16;100804.43;1810559;78;22805;-86
2021/05/10 11:09:50;;;;;;;11.77;7.80;;;;;;;23.66;35.11;100829.95;1872584;76;27764;-86
2021/05/10 11:12:50;;;;;;;4.20;2.60;;;;;;;23.73;35.05;100830.20;1810639;78;23431;-86
2021/05/10 11:15:42;;;;;;;5.87;2.95;;;;;;;23.77;35.16;100825.16;1810466;78;23411;-86
2021/05/10 11:21:33;;;;;;;7.35;2.70;;;;;;;23.92;34.91;100809.55;1794897;78;28561;-85
2021/05/10 11:24:16;;;;;;;6.63;3.03;;;;;;;24.00;35.00;100814.23;1823416;77;27923;-86
2021/05/10 11:26:55;;;;;;;5.60;3.20;;;;;;;24.11;34.91;100810.75;1810530;78;22638;-83
2021/05/10 11:29:42;;;;;;;5.97;3.15;;;;;;;24.17;34.91;100811.91;1888293;76;23165;-84
2021/05/10 11:32:27;;;;;;;5.22;2.42;;;;;;;24.20;34.99;100803.75;1850486;76;20950;-85
2021/05/10 11:35:26;;;;;;;4.20;2.00;;;;;;;24.25;35.16;100811.66;1827075;77;27604;-84
2021/05/10 11:38:07;;;;;;;10.53;6.25;;;;;;;24.29;34.73;100796.31;1888229;76;22657;-86
2021/05/10 11:40:48;;;;;;;6.65;2.92;;;;;;;24.33;34.78;100802.05;1888216;76;22608;-87
2021/05/10 11:43:26;;;;;;;2.95;2.30;;;;;;;24.35;34.71;100795.67;1810557;78;23247;-84
2021/05/10 11:46:07;;;;;;;4.20;1.90;;;;;;;24.34;34.69;100795.24;1888442;75;22325;-86
2021/05/10 11:48:44;;;;;;;6.90;3.62;;;;;;;24.33;34.49;100797.53;1810566;78;22825;-84
2021/05/10 11:51:21;;;;;;;3.27;2.27;;;;;;;24.31;34.37;100791.80;1810425;78;22002;-84
2021/05/10 11:54:06;;;;;;;3.87;1.87;;;;;;;24.31;34.54;100779.69;1811016;77;22715;-89
2021/05/10 11:56:46;;;;;;;5.42;2.72;;;;;;;24.34;34.58;100781.80;1889555;76;22657;-89
2021/05/10 11:59:42;;;;;;;3.25;1.65;;;;;;;24.37;34.62;100775.45;1889611;76;22323;-89
2021/05/10 12:02:28;;;;;;;5.60;1.87;;;;;;;24.42;34.69;100774.84;1827764;78;22887;-89
2021/05/10 12:05:12;;;;;;;4.35;2.15;;;;;;;24.47;35.00;100776.91;1840083;77;23310;-89
2021/05/10 12:07:50;;;;;;;9.25;1.92;;;;;;;24.50;34.98;100772.78;1812090;78;22727;-89
2021/05/10 12:10:27;;;;;;;5.90;2.12;;;;;;;24.57;34.80;100777.52;1840199;77;23260;-90
2021/05/10 12:13:29;;;;;;;12.45;2.17;;;;;;;24.62;34.73;100771.05;1787019;78;22286;-86
2021/05/10 12:16:07;;;;;;;3.47;1.65;;;;;;;24.70;34.91;100777.99;1888702;76;23291;-86
2021/05/10 12:18:55;;;;;;;7.20;2.12;;;;;;;24.75;34.86;100773.34;1888694;75;22645;-87
2021/05/10 12:22:06;;;;;;;3.60;2.62;;;;;;;24.84;34.85;100774.39;1862094;75;28116;-85
2021/05/10 12:25:17;;;;;;;4.87;2.90;;;;;;;24.94;34.72;100783.02;1888576;76;22265;-86
2021/05/10 12:28:09;;;;;;;7.25;2.27;;;;;;;24.98;34.65;100768.07;1810628;77;23442;-86
2021/05/10 12:30:58;;;;;;;3.80;2.80;;;;;;;25.00;34.68;100771.59;1810524;78;22830;-84
2021/05/10 12:33:37;;;;;;;5.45;1.80;;;;;;;25.07;34.43;100778.09;1810534;78;23363;-84
2021/05/10 12:36:16;;;;;;;6.60;1.90;;;;;;;25.07;34.23;100770.02;1810518;78;22795;-86
2021/05/10 12:38:57;;;;;;;4.15;2.00;;;;;;;25.06;34.32;100770.94;1810591;78;22852;-84
2021/05/10 12:41:39;;;;;;;2.77;1.92;;;;;;;25.06;34.33;100769.15;1888651;76;22663;-90
2021/05/10 12:44:17;;;;;;;4.20;1.85;;;;;;;25.11;34.37;100773.88;1889211;76;22188;-91
2021/05/10 12:46:59;;;;;;;6.00;2.45;;;;;;;25.14;34.47;100772.44;1811966;78;23378;-91
2021/05/10 12:49:44;;;;;;;3.10;1.90;;;;;;;25.20;34.45;100778.08;1889273;76;22648;-90
2021/05/10 12:52:21;;;;;;;9.55;4.70;;;;;;;25.27;34.48;100772.05;1811094;78;22930;-92
2021/05/10 12:54:57;;;;;;;6.22;3.65;;;;;;;25.30;34.60;100768.78;1889324;76;23664;-90
2021/05/10 12:57:40;;;;;;;6.70;2.37;;;;;;;25.32;34.58;100772.30;1811734;78;22597;-93
2021/05/10 13:00:31;;;;;;;5.05;2.33;;;;;;;25.34;34.72;100765.48;1889073;76;22646;-90
2021/05/10 13:03:33;;;;;;;4.00;2.05;;;;;;;25.35;34.81;100760.52;1811208;78;22724;-91
2021/05/10 13:06:14;;;;;;;6.45;2.00;;;;;;;25.38;34.92;100761.30;1810637;78;22754;-85
2021/05/10 13:08:50;;;;;;;6.83;2.60;;;;;;;25.34;34.69;100766.39;1888661;76;22196;-85
2021/05/10 13:11:46;;;;;;;3.60;2.60;;;;;;;25.27;34.84;100765.32;1810466;77;22764;-86
2021/05/10 13:14:30;;;;;;;5.80;1.92;;;;;;;25.28;35.11;100753.59;1810717;78;22822;-87
2021/05/10 13:31:49;;;;;;;4.42;1.72;;;;;;;25.82;34.18;100747.55;1889375;75;22663;-92
2021/05/10 13:34:56;;;;;;;7.00;2.27;;;;;;;25.76;34.39;100741.92;1811238;78;22754;-92
2021/05/10 13:37:30;;;;;;;10.30;2.10;;;;;;;25.70;34.33;100747.56;1888763;76;22949;-85
2021/05/10 13:40:08;;;;;;;3.15;1.67;;;;;;;25.63;34.35;100748.25;1810766;78;22334;-86